sensor_id;sensor_type;location;lat;lon;timestamp;pressure;altitude;pressure_sealevel;temperature;humidity
15558;BME280;7880;50.110;9.372;2023-05-10T00:03:31;14.576755439216504;;;14.187;100.0
15558;BME280;7880;50.110;9.372;2023-05-10T00:08:36;14.375054230733076;;;14.062;100.0
15558;BME280;7880;50.110;9.372;2023-05-10T00:13:40;14.445649600733304;;;14.062;100.0
15558;BME280;7880;50.110;9.372;2023-05-10T00:18:45;14.163268462993438;;;13.937;100.0
15558;BME280;7880;50.110;9.372;2023-05-10T00:23:49;14.28428883883753;;;13.937;100.0
15558;BME280;7880;50.110;9.372;2023-05-10T00:28:58;14.299416397605091;;;14.0;100.0
15558;BME280;7880;50.110;9.372;2023-05-10T00:33:57;13.966610709787346;;;13.687;100.0
15558;BME280;7880;50.110;9.372;2023-05-10T00:39:04;13.22536623417982;;;13.187;100.0
15558;BME280;7880;50.110;9.372;2023-05-10T00:44:05;13.058965277508833;;;12.812;100.0
15558;BME280;7880;50.110;9.372;2023-05-10T00:49:11;12.791715919465059;;;12.562;100.0
15558;BME280;7880;50.110;9.372;2023-05-10T00:54:30;12.80180078605772;;;12.562;100.0
15558;BME280;7880;50.110;9.372;2023-05-10T00:59:31;12.8623100100609;;;12.625;100.0
15558;BME280;7880;50.110;9.372;2023-05-10T01:04:31;12.852225136483321;;;12.625;100.0
15558;BME280;7880;50.110;9.372;2023-05-10T01:09:40;12.806843219790608;;;12.562;100.0
15558;BME280;7880;50.110;9.372;2023-05-10T01:14:38;12.756418895558454;;;12.562;100.0
15558;BME280;7880;50.110;9.372;2023-05-10T01:19:43;12.620273365505273;;;12.375;100.0
15558;BME280;7880;50.110;9.372;2023-05-10T01:25:08;12.66565518528223;;;12.375;100.0
15558;BME280;7880;50.110;9.372;2023-05-10T01:36:54;12.584976410865783;;;12.375;100.0
15558;BME280;7880;50.110;9.372;2023-05-10T01:41:56;12.292516478174367;;;12.062;100.0
15558;BME280;7880;50.110;9.372;2023-05-10T01:47:05;12.660612759698415;;;12.312;100.0
15558;BME280;7880;50.110;9.372;2023-05-10T01:52:09;12.408491851581493;;;12.125;100.0
15558;BME280;7880;50.110;9.372;2023-05-10T01:57:10;12.04543902213336;;;11.937;100.0
15558;BME280;7880;50.110;9.372;2023-05-10T02:02:12;12.206795648956904;;;12.0;100.0
15558;BME280;7880;50.110;9.372;2023-05-10T02:07:14;12.110990115837193;;;11.937;100.0
15558;BME280;7880;50.110;9.372;2023-05-10T02:12:18;12.03535424285219;;;11.875;100.0
15558;BME280;7880;50.110;9.372;2023-05-10T02:17:23;12.03535424285219;;;11.875;100.0
15558;BME280;7880;50.110;9.372;2023-05-10T02:22:27;12.055523802578682;;;11.875;100.0
15558;BME280;7880;50.110;9.372;2023-05-10T02:27:41;11.939548897743226;;;11.812;100.0
15558;BME280;7880;50.110;9.372;2023-05-10T02:32:38;12.105947722267592;;;11.875;100.0
15558;BME280;7880;50.110;9.372;2023-05-10T02:37:41;11.899209836497903;;;11.75;100.0
15558;BME280;7880;50.110;9.372;2023-05-10T02:42:47;11.924421747593442;;;11.812;100.0
15558;BME280;7880;50.110;9.372;2023-05-10T02:47:49;11.662218227848644;;;11.625;100.0
15558;BME280;7880;50.110;9.372;2023-05-10T02:52:57;11.727769034006633;;;11.625;100.0
15558;BME280;7880;50.110;9.372;2023-05-10T02:58:01;11.853828414861345;;;11.687;100.0
15558;BME280;7880;50.110;9.372;2023-05-10T03:03:02;11.642048758926103;;;11.562;100.0
15558;BME280;7880;50.110;9.372;2023-05-10T03:08:08;11.662218227848644;;;11.625;100.0
15558;BME280;7880;50.110;9.372;2023-05-10T03:13:24;11.80844701679889;;;11.625;100.0
15558;BME280;7880;50.110;9.372;2023-05-10T03:18:21;11.682387701427796;;;11.625;100.0
15558;BME280;7880;50.110;9.372;2023-05-10T03:23:27;11.732811405748361;;;11.562;100.0
15558;BME280;7880;50.110;9.372;2023-05-10T03:28:27;11.67734533259645;;;11.625;100.0
15558;BME280;7880;50.110;9.372;2023-05-10T03:33:47;11.611794564273442;;;11.562;100.0
15558;BME280;7880;50.110;9.372;2023-05-10T03:38:36;11.732811405748361;;;11.625;100.0
15558;BME280;7880;50.110;9.372;2023-05-10T03:43:40;11.672302964056144;;;11.562;100.0
15558;BME280;7880;50.110;9.372;2023-05-10T03:48:44;11.541201484162594;;;11.5;100.0
15558;BME280;7880;50.110;9.372;2023-05-10T03:53:49;11.7075995499501;;;11.562;100.0
15558;BME280;7880;50.110;9.372;2023-05-10T03:58:58;11.531116763089084;;;11.5;100.0
15558;BME280;7880;50.110;9.372;2023-05-10T04:03:57;11.631964026211062;;;11.562;100.0
15558;BME280;7880;50.110;9.372;2023-05-10T04:09:04;11.727769034006633;;;11.562;100.0
15558;BME280;7880;50.110;9.372;2023-05-10T04:14:09;11.7075995499501;;;11.5;100.0
15558;BME280;7880;50.110;9.372;2023-05-10T04:19:11;11.541201484162594;;;11.437;100.0
15558;BME280;7880;50.110;9.372;2023-05-10T04:24:16;11.65717586018145;;;11.5;100.0
15558;BME280;7880;50.110;9.372;2023-05-10T04:29:27;11.566413291939535;;;11.5;100.0
15558;BME280;7880;50.110;9.372;2023-05-10T04:35:21;11.667260595806875;;;11.5;100.0
15558;BME280;7880;50.110;9.372;2023-05-10T04:40:25;11.6269216602901;;;11.5;100.0
15558;BME280;7880;50.110;9.372;2023-05-10T04:45:30;11.631964026211062;;;11.5;100.0
15558;BME280;7880;50.110;9.372;2023-05-10T04:50:35;11.783235139172756;;;11.625;100.0
15558;BME280;7880;50.110;9.372;2023-05-10T04:55:39;11.692472439963604;;;11.562;100.0
15558;BME280;7880;50.110;9.372;2023-05-10T05:00:44;11.712641920527677;;;11.625;100.0
15558;BME280;7880;50.110;9.372;2023-05-10T05:05:49;11.914336982282112;;;11.687;100.0
15558;BME280;7880;50.110;9.372;2023-05-10T05:10:52;11.823574146867031;;;11.75;100.0
15558;BME280;7880;50.110;9.372;2023-05-10T05:15:56;11.873997932678321;;;11.75;100.0
15558;BME280;7880;50.110;9.372;2023-05-10T05:21:01;12.005099911993602;;;11.875;100.0
15558;BME280;7880;50.110;9.372;2023-05-10T05:26:15;12.131159693025984;;;11.937;100.0
15558;BME280;7880;50.110;9.372;2023-05-10T05:31:19;11.904252218134934;;;11.812;100.0
15558;BME280;7880;50.110;9.372;2023-05-10T05:36:16;11.853828414861345;;;11.75;100.0
15558;BME280;7880;50.110;9.372;2023-05-10T05:41:21;11.80844701679889;;;11.687;100.0
15558;BME280;7880;50.110;9.372;2023-05-10T05:46:25;11.778192764520645;;;11.687;100.0
15558;BME280;7880;50.110;9.372;2023-05-10T05:51:35;11.80844701679889;;;11.687;100.0
15558;BME280;7880;50.110;9.372;2023-05-10T05:56:35;11.75298089562566;;;11.687;100.0
15558;BME280;7880;50.110;9.372;2023-05-10T06:01:39;11.964760820480297;;;11.812;100.0
15558;BME280;7880;50.110;9.372;2023-05-10T06:06:43;11.954676050512353;;;11.875;100.0
15558;BME280;7880;50.110;9.372;2023-05-10T06:11:48;12.04543902213336;;;11.937;100.0
15558;BME280;7880;50.110;9.372;2023-05-10T06:16:54;12.176541258726502;;;12.062;100.0
15558;BME280;7880;50.110;9.372;2023-05-10T06:21:58;12.146286878973479;;;12.062;100.0
15558;BME280;7880;50.110;9.372;2023-05-10T06:27:06;12.095862936001504;;;11.937;100.0
15558;BME280;7880;50.110;9.372;2023-05-10T06:32:07;12.04543902213336;;;11.875;100.0
15558;BME280;7880;50.110;9.372;2023-05-10T06:37:11;11.919379364792258;;;11.875;100.0
15558;BME280;7880;50.110;9.372;2023-05-10T06:42:15;11.989972750493326;;;11.875;100.0
15558;BME280;7880;50.110;9.372;2023-05-10T06:47:29;11.964760820480297;;;11.875;100.0
15558;BME280;7880;50.110;9.372;2023-05-10T06:52:23;11.889125074096956;;;11.812;100.0
15558;BME280;7880;50.110;9.372;2023-05-10T06:57:36;12.146286878973479;;;12.0;100.0
15558;BME280;7880;50.110;9.372;2023-05-10T07:02:33;11.995015137369046;;;11.812;100.0
15558;BME280;7880;50.110;9.372;2023-05-10T07:07:38;12.100905328989029;;;11.937;100.0
15558;BME280;7880;50.110;9.372;2023-05-10T07:12:43;11.89416745515191;;;11.812;100.0
15558;BME280;7880;50.110;9.372;2023-05-10T07:17:48;12.005099911993602;;;11.875;100.0
15558;BME280;7880;50.110;9.372;2023-05-10T07:22:53;11.939548897743226;;;11.812;100.0
15558;BME280;7880;50.110;9.372;2023-05-10T07:27:56;11.838701279554517;;;11.75;100.0
15558;BME280;7880;50.110;9.372;2023-05-10T07:33:03;11.747938522719778;;;11.625;100.0
15558;BME280;7880;50.110;9.372;2023-05-10T07:38:06;11.924421747593442;;;11.812;100.0
15558;BME280;7880;50.110;9.372;2023-05-10T07:43:10;12.131159693025984;;;11.937;100.0
15558;BME280;7880;50.110;9.372;2023-05-10T07:48:20;12.065608584188158;;;12.0;100.0
15558;BME280;7880;50.110;9.372;2023-05-10T07:53:19;12.262262058258056;;;12.125;100.0
15558;BME280;7880;50.110;9.372;2023-05-10T07:58:23;12.186626054305815;;;12.125;100.0
15558;BME280;7880;50.110;9.372;2023-05-10T08:03:27;12.030311853648163;;;11.937;100.0
15558;BME280;7880;50.110;9.372;2023-05-10T08:08:31;12.136202088050776;;;11.937;100.0
15558;BME280;7880;50.110;9.372;2023-05-10T08:13:35;12.146286878973479;;;12.0;100.0
15558;BME280;7880;50.110;9.372;2023-05-10T08:18:40;12.055523802578682;;;12.0;100.0
15558;BME280;7880;50.110;9.372;2023-05-10T08:23:44;12.04543902213336;;;11.937;100.0
15558;BME280;7880;50.110;9.372;2023-05-10T08:28:47;12.105947722267592;;;12.0;100.0
15558;BME280;7880;50.110;9.372;2023-05-10T08:33:53;12.378237391501898;;;12.187;100.0
15558;BME280;7880;50.110;9.372;2023-05-10T08:38:56;12.347982941899682;;;12.25;100.0
15558;BME280;7880;50.110;9.372;2023-05-10T08:44:03;12.479085632512579;;;12.312;100.0
15558;BME280;7880;50.110;9.372;2023-05-10T08:49:06;12.60010367539362;;;12.437;100.0
15558;BME280;7880;50.110;9.372;2023-05-10T08:54:08;12.761461326671997;;;12.562;100.0
15558;BME280;7880;50.110;9.372;2023-05-10T08:59:14;12.761461326671997;;;12.687;100.0
15558;BME280;7880;50.110;9.372;2023-05-10T09:04:19;13.043837933527538;;;12.875;100.0
15558;BME280;7880;50.110;9.372;2023-05-10T09:09:22;12.80180078605772;;;12.75;100.0
15558;BME280;7880;50.110;9.372;2023-05-10T09:14:37;12.973243696248392;;;12.812;100.0
15558;BME280;7880;50.110;9.372;2023-05-10T09:19:34;13.154771850217367;;;13.0;100.0
15558;BME280;7880;50.110;9.372;2023-05-10T09:24:43;13.517829289712244;;;13.375;100.0
15558;BME280;7880;50.110;9.372;2023-05-10T09:29:42;13.598508925602072;;;13.437;100.0
15558;BME280;7880;50.110;9.372;2023-05-10T09:34:49;13.437149728328222;;;13.312;100.0
15558;BME280;7880;50.110;9.372;2023-05-10T09:39:54;13.497659392381319;;;13.312;100.0
15558;BME280;7880;50.110;9.372;2023-05-10T09:45:01;13.911143218405778;;;13.687;100.0
15558;BME280;7880;50.110;9.372;2023-05-10T09:50:04;13.68423112037126;;;13.625;100.0
15558;BME280;7880;50.110;9.372;2023-05-10T09:55:11;13.74978344371193;;;13.625;100.0
15558;BME280;7880;50.110;9.372;2023-05-10T10:00:18;13.598508925602072;;;13.562;100.0
15558;BME280;7880;50.110;9.372;2023-05-10T10:05:14;13.628763808269287;;;13.625;100.0
15558;BME280;7880;50.110;9.372;2023-05-10T10:10:19;13.769953399250516;;;13.625;100.0
15558;BME280;7880;50.110;9.372;2023-05-10T10:15:26;13.890973230270902;;;13.812;100.0
15558;BME280;7880;50.110;9.372;2023-05-10T10:20:28;14.122928374964976;;;13.937;100.0
15558;BME280;7880;50.110;9.372;2023-05-10T10:25:33;14.364969182532514;;;14.187;100.0
15558;BME280;7880;50.110;9.372;2023-05-10T10:30:41;13.971653210750082;;;13.937;100.0
15558;BME280;7880;50.110;9.372;2023-05-10T10:35:41;14.052333265735069;;;13.937;100.0
15558;BME280;7880;50.110;9.372;2023-05-10T10:41:02;13.916185716167092;;;13.75;100.0
15558;BME280;7880;50.110;9.372;2023-05-10T10:46:23;14.158225950971246;;;14.0;100.0
15558;BME280;7880;50.110;9.372;2023-05-10T10:51:06;14.183438513992588;;;14.062;100.0
15558;BME280;7880;50.110;9.372;2023-05-10T10:56:09;14.6776062180812;;;14.437;100.0
15558;BME280;7880;50.110;9.372;2023-05-10T11:01:17;14.591883048624732;;;14.75;100.0
15558;BME280;7880;50.110;9.372;2023-05-10T11:06:28;14.324629001371795;;;14.312;100.0
15558;BME280;7880;50.110;9.372;2023-05-10T11:11:23;14.51624502777704;;;14.375;100.0
15558;BME280;7880;50.110;9.372;2023-05-10T11:16:25;14.617095736792544;;;14.375;100.0
15558;BME280;7880;50.110;9.372;2023-05-10T11:21:28;14.617095736792544;;;14.625;100.0
15558;BME280;7880;50.110;9.372;2023-05-10T11:26:33;14.511202495382168;;;14.375;100.0
15558;BME280;7880;50.110;9.372;2023-05-10T11:31:42;14.385139280097793;;;14.312;100.0
15558;BME280;7880;50.110;9.372;2023-05-10T11:36:41;14.052333265735069;;;13.937;100.0
15558;BME280;7880;50.110;9.372;2023-05-10T11:42:02;14.364969182532514;;;14.25;100.0
15558;BME280;7880;50.110;9.372;2023-05-10T11:46:51;14.26916128268931;;;14.187;100.0
15558;BME280;7880;50.110;9.372;2023-05-10T11:52:03;14.203608569648349;;;14.125;100.0
15558;BME280;7880;50.110;9.372;2023-05-10T11:57:00;14.28428883883753;;;14.187;100.0
15558;BME280;7880;50.110;9.372;2023-05-10T12:02:04;14.470862246700563;;;14.312;100.0
15558;BME280;7880;50.110;9.372;2023-05-10T12:07:09;14.28428883883753;;;14.125;100.0
15558;BME280;7880;50.110;9.372;2023-05-10T12:12:16;14.339756567124278;;;14.25;100.0
15558;BME280;7880;50.110;9.372;2023-05-10T12:17:28;14.158225950971246;;;14.125;100.0
15558;BME280;7880;50.110;9.372;2023-05-10T12:22:21;14.601968123018741;;;14.437;100.0
15558;BME280;7880;50.110;9.372;2023-05-10T12:27:32;14.400266856327653;;;14.375;100.0
15558;BME280;7880;50.110;9.372;2023-05-10T12:32:40;14.324629001371795;;;14.312;100.0
15558;BME280;7880;50.110;9.372;2023-05-10T12:37:39;14.51624502777704;;;14.437;100.0
15558;BME280;7880;50.110;9.372;2023-05-10T12:42:42;14.04729076011572;;;14.0;100.0
15558;BME280;7880;50.110;9.372;2023-05-10T12:47:45;14.183438513992588;;;14.062;100.0
15558;BME280;7880;50.110;9.372;2023-05-10T12:52:49;13.971653210750082;;;13.875;100.0
15558;BME280;7880;50.110;9.372;2023-05-10T12:57:53;14.032163245003904;;;13.875;100.0
15558;BME280;7880;50.110;9.372;2023-05-10T13:02:58;13.926270712562836;;;13.875;100.0
15558;BME280;7880;50.110;9.372;2023-05-10T13:08:03;14.299416397605091;;;14.062;100.0
15558;BME280;7880;50.110;9.372;2023-05-10T13:13:08;13.850633267970988;;;13.75;100.0
15558;BME280;7880;50.110;9.372;2023-05-10T13:18:13;13.75482593216002;;;13.75;100.0
15558;BME280;7880;50.110;9.372;2023-05-10T13:23:20;13.94139820933924;;;13.875;100.0
15558;BME280;7880;50.110;9.372;2023-05-10T13:28:32;14.18848102746997;;;14.0;100.0
15558;BME280;7880;50.110;9.372;2023-05-10T13:33:34;14.385139280097793;;;14.25;100.0
15558;BME280;7880;50.110;9.372;2023-05-10T13:38:32;14.596925585676217;;;14.5;100.0
15558;BME280;7880;50.110;9.372;2023-05-10T13:43:36;14.51624502777704;;;14.437;100.0
15558;BME280;7880;50.110;9.372;2023-05-10T13:48:41;14.617095736792544;;;14.562;100.0
15558;BME280;7880;50.110;9.372;2023-05-10T13:53:47;14.803669855371117;;;14.812;100.0
15558;BME280;7880;50.110;9.372;2023-05-10T13:58:57;14.899478341365466;;;14.875;100.0
15558;BME280;7880;50.110;9.372;2023-05-10T14:03:56;15.111265893751987;;;15.0;100.0
15558;BME280;7880;50.110;9.372;2023-05-10T14:09:04;15.111265893751987;;;15.0;100.0
15558;BME280;7880;50.110;9.372;2023-05-10T14:14:06;15.34322427828447;;;15.187;100.0
15558;BME280;7880;50.110;9.372;2023-05-10T14:19:12;15.222202435607324;;;15.187;100.0
15558;BME280;7880;50.110;9.372;2023-05-10T14:24:16;15.287755912914871;;;15.187;100.0
15558;BME280;7880;50.110;9.372;2023-05-10T14:29:22;15.23228758276091;;;15.125;100.0
15558;BME280;7880;50.110;9.372;2023-05-10T14:34:26;15.318011380569079;;;15.187;100.0
15558;BME280;7880;50.110;9.372;2023-05-10T14:39:30;15.222202435607324;;;15.187;100.0
15558;BME280;7880;50.110;9.372;2023-05-10T14:44:35;15.222202435607324;;;15.187;100.0
15558;BME280;7880;50.110;9.372;2023-05-10T14:49:39;15.469288876000792;;;15.312;100.0
15558;BME280;7880;50.110;9.372;2023-05-10T14:54:44;15.504586995957652;;;15.5;100.0
15558;BME280;7880;50.110;9.372;2023-05-10T14:59:51;15.474331463692943;;;15.312;100.0
15558;BME280;7880;50.110;9.372;2023-05-10T15:04:53;15.222202435607324;;;15.187;100.0
15558;BME280;7880;50.110;9.372;2023-05-10T15:09:59;14.869223018648336;;;14.875;100.0
15558;BME280;7880;50.110;9.372;2023-05-10T15:15:03;14.823840054217726;;;14.687;100.0
15558;BME280;7880;50.110;9.372;2023-05-10T15:20:07;14.531372626707888;;;14.5;100.0
15558;BME280;7880;50.110;9.372;2023-05-10T15:25:10;14.566670367732877;;;14.437;100.0
15558;BME280;7880;50.110;9.372;2023-05-10T15:30:18;14.707861474441597;;;14.562;100.0
15558;BME280;7880;50.110;9.372;2023-05-10T15:35:18;14.728031651169294;;;14.562;100.0
15558;BME280;7880;50.110;9.372;2023-05-10T15:40:21;14.354884135496103;;;14.25;100.0
15558;BME280;7880;50.110;9.372;2023-05-10T15:45:28;14.43556454438367;;;14.312;100.0
15558;BME280;7880;50.110;9.372;2023-05-10T15:50:30;14.455734658247092;;;14.312;100.0
15558;BME280;7880;50.110;9.372;2023-05-10T15:55:37;14.561627832427622;;;14.437;100.0
15558;BME280;7880;50.110;9.372;2023-05-10T16:00:39;14.687691302370514;;;14.5;100.0
15558;BME280;7880;50.110;9.372;2023-05-10T16:05:51;14.627180814096937;;;14.5;100.0
15558;BME280;7880;50.110;9.372;2023-05-10T16:10:50;14.566670367732877;;;14.5;100.0
15558;BME280;7880;50.110;9.372;2023-05-10T16:15:52;14.627180814096937;;;14.5;100.0
15558;BME280;7880;50.110;9.372;2023-05-10T16:20:57;14.657436052995035;;;14.5;100.0
15558;BME280;7880;50.110;9.372;2023-05-10T16:26:08;14.687691302370514;;;14.562;100.0
15558;BME280;7880;50.110;9.372;2023-05-10T16:31:05;14.66247859383002;;;14.5;100.0
15558;BME280;7880;50.110;9.372;2023-05-10T16:36:13;14.672563676373102;;;14.562;100.0
15558;BME280;7880;50.110;9.372;2023-05-10T16:41:14;14.576755439216504;;;14.5;100.0
15558;BME280;7880;50.110;9.372;2023-05-10T16:46:34;14.859137913404265;;;14.687;100.0
15558;BME280;7880;50.110;9.372;2023-05-10T16:51:28;14.647350972198183;;;14.562;100.0
15558;BME280;7880;50.110;9.372;2023-05-10T16:56:28;14.561627832427622;;;14.5;100.0
15558;BME280;7880;50.110;9.372;2023-05-10T17:01:34;14.838967706408585;;;14.625;100.0
15558;BME280;7880;50.110;9.372;2023-05-10T17:06:45;14.707861474441597;;;14.687;100.0
15558;BME280;7880;50.110;9.372;2023-05-10T17:11:46;14.788542209292064;;;14.687;100.0
15558;BME280;7880;50.110;9.372;2023-05-10T17:16:52;14.788542209292064;;;14.75;100.0
15558;BME280;7880;50.110;9.372;2023-05-10T17:21:55;14.929733674559975;;;14.75;100.0
15558;BME280;7880;50.110;9.372;2023-05-10T17:27:00;15.015457175509074;;;14.875;100.0
15558;BME280;7880;50.110;9.372;2023-05-10T17:32:03;14.985201812628656;;;14.875;100.0
15558;BME280;7880;50.110;9.372;2023-05-10T17:37:12;14.74315928677097;;;14.687;100.0
15558;BME280;7880;50.110;9.372;2023-05-10T17:42:16;14.521287560462952;;;14.5;100.0
15558;BME280;7880;50.110;9.372;2023-05-10T17:47:21;14.63222335318569;;;14.5;100.0
15558;BME280;7880;50.110;9.372;2023-05-10T17:52:28;14.415394435176859;;;14.375;100.0
15558;BME280;7880;50.110;9.372;2023-05-10T17:57:30;14.526330093439901;;;14.312;100.0
15558;BME280;7880;50.110;9.372;2023-05-10T18:02:40;14.43556454438367;;;14.25;100.0
15558;BME280;7880;50.110;9.372;2023-05-10T18:07:45;14.485989837773378;;;14.312;100.0
15558;BME280;7880;50.110;9.372;2023-05-10T18:12:47;14.455734658247092;;;14.25;100.0
15558;BME280;7880;50.110;9.372;2023-05-10T18:17:52;14.243948694929713;;;14.125;100.0
15558;BME280;7880;50.110;9.372;2023-05-10T18:22:54;14.072503291122848;;;13.937;100.0
15558;BME280;7880;50.110;9.372;2023-05-10T18:27:58;14.017035732511431;;;13.875;100.0
15558;BME280;7880;50.110;9.372;2023-05-10T18:33:03;13.916185716167092;;;13.687;100.0
15558;BME280;7880;50.110;9.372;2023-05-10T18:38:09;13.951483208645367;;;13.687;100.0
15558;BME280;7880;50.110;9.372;2023-05-10T18:43:15;13.790123359445715;;;13.562;100.0
15558;BME280;7880;50.110;9.372;2023-05-10T18:48:26;13.527914240123938;;;13.437;100.0
15558;BME280;7880;50.110;9.372;2023-05-10T18:53:24;13.396809975575888;;;13.187;100.0
15558;BME280;7880;50.110;9.372;2023-05-10T18:58:29;13.023668145627017;;;12.875;100.0
15558;BME280;7880;50.110;9.372;2023-05-10T19:03:47;12.872394884802635;;;12.625;100.0
15558;BME280;7880;50.110;9.372;2023-05-10T19:08:39;12.816928088129497;;;12.5;100.0
15558;BME280;7880;50.110;9.372;2023-05-10T19:13:44;12.685824890527874;;;12.375;100.0
15558;BME280;7880;50.110;9.372;2023-05-10T19:18:47;12.660612759698415;;;12.312;100.0
15558;BME280;7880;50.110;9.372;2023-05-10T19:23:55;12.438746322138467;;;12.187;100.0
15558;BME280;7880;50.110;9.372;2023-05-10T19:28:59;12.458915974997216;;;12.187;100.0
15558;BME280;7880;50.110;9.372;2023-05-10T19:34:04;12.000057524535805;;;11.812;100.0
15558;BME280;7880;50.110;9.372;2023-05-10T19:39:10;12.025269464735175;;;11.75;100.0
15558;BME280;7880;50.110;9.372;2023-05-10T19:44:15;11.995015137369046;;;11.687;100.0
15558;BME280;7880;50.110;9.372;2023-05-10T19:49:22;11.884082693333038;;;11.625;100.0
15558;BME280;7880;50.110;9.372;2023-05-10T19:54:39;11.873997932678321;;;11.687;100.0
15558;BME280;7880;50.110;9.372;2023-05-10T19:59:44;11.873997932678321;;;11.687;100.0
15558;BME280;7880;50.110;9.372;2023-05-10T20:04:49;11.87904031286016;;;11.687;100.0
15558;BME280;7880;50.110;9.372;2023-05-10T20:09:56;11.914336982282112;;;11.687;100.0
15558;BME280;7880;50.110;9.372;2023-05-10T20:14:59;11.52103204317973;;;11.375;100.0
15558;BME280;7880;50.110;9.372;2023-05-10T20:20:06;11.631964026211062;;;11.375;100.0
15558;BME280;7880;50.110;9.372;2023-05-10T20:25:11;11.924421747593442;;;11.562;100.0
15558;BME280;7880;50.110;9.372;2023-05-10T20:30:20;11.637006392423064;;;11.5;100.0
15558;BME280;7880;50.110;9.372;2023-05-10T20:35:20;11.334464934840799;;;11.125;100.0
15558;BME280;7880;50.110;9.372;2023-05-10T20:40:25;11.25882973415428;;;11.062;100.0
15558;BME280;7880;50.110;9.372;2023-05-10T20:45:29;11.25378738977015;;;11.062;100.0
15558;BME280;7880;50.110;9.372;2023-05-10T20:50:34;11.263872078829445;;;11.062;100.0
15558;BME280;7880;50.110;9.372;2023-05-10T20:55:41;11.304210846708155;;;11.187;100.0
15558;BME280;7880;50.110;9.372;2023-05-10T21:00:44;11.24874504567706;;;11.125;100.0
15558;BME280;7880;50.110;9.372;2023-05-10T21:05:47;11.127728874754393;;;10.937;100.0
15558;BME280;7880;50.110;9.372;2023-05-10T21:10:52;10.996628212096402;;;10.875;100.0
15558;BME280;7880;50.110;9.372;2023-05-10T21:15:56;11.026882193709024;;;10.875;100.0
15558;BME280;7880;50.110;9.372;2023-05-10T21:21:02;11.082347853877582;;;10.937;100.0
15558;BME280;7880;50.110;9.372;2023-05-10T21:26:20;11.021839862712659;;;10.875;100.0
15558;BME280;7880;50.110;9.372;2023-05-10T21:31:16;11.117644201411167;;;10.875;100.0
15558;BME280;7880;50.110;9.372;2023-05-10T21:36:17;11.233618015144021;;;11.062;100.0
15558;BME280;7880;50.110;9.372;2023-05-10T21:41:21;11.52103204317973;;;11.25;100.0
15558;BME280;7880;50.110;9.372;2023-05-10T21:46:27;11.273956769052893;;;11.187;100.0
15558;BME280;7880;50.110;9.372;2023-05-10T21:51:31;11.203363961935974;;;11.0;100.0
15558;BME280;7880;50.110;9.372;2023-05-10T21:56:35;11.147898224933305;;;11.0;100.0
15558;BME280;7880;50.110;9.372;2023-05-10T22:01:41;11.057136185799028;;;10.937;100.0
15558;BME280;7880;50.110;9.372;2023-05-10T22:06:47;11.097474858217174;;;10.875;100.0
15558;BME280;7880;50.110;9.372;2023-05-10T22:11:53;11.33950728388154;;;11.125;100.0
15558;BME280;7880;50.110;9.372;2023-05-10T22:16:57;11.092432523146272;;;11.062;100.0
15558;BME280;7880;50.110;9.372;2023-05-10T22:21:55;10.910908654425294;;;10.812;100.0
15558;BME280;7880;50.110;9.372;2023-05-10T22:27:01;10.850400782003998;;;10.687;100.0
15558;BME280;7880;50.110;9.372;2023-05-10T22:32:05;10.815104542445624;;;10.625;100.0
15558;BME280;7880;50.110;9.372;2023-05-10T22:37:17;10.729385162889958;;;10.562;100.0
15558;BME280;7880;50.110;9.372;2023-05-10T22:42:13;10.805019905191148;;;10.625;100.0
15558;BME280;7880;50.110;9.372;2023-05-10T22:47:17;10.55290435217903;;;10.437;100.0
15558;BME280;7880;50.110;9.372;2023-05-10T22:52:22;10.300789526762674;;;10.187;100.0
15558;BME280;7880;50.110;9.372;2023-05-10T22:57:33;10.31087410580949;;;10.125;100.0
15558;BME280;7880;50.110;9.372;2023-05-10T23:02:35;10.280620372161502;;;10.187;100.0
15558;BME280;7880;50.110;9.372;2023-05-10T23:07:36;10.043633154407143;;;9.937;100.0
15558;BME280;7880;50.110;9.372;2023-05-10T23:12:40;9.998252696689452;;;9.875;100.0
15558;BME280;7880;50.110;9.372;2023-05-10T23:17:43;10.169690105092013;;;10.062;100.0
15558;BME280;7880;50.110;9.372;2023-05-10T23:22:55;9.932703188271262;;;9.75;100.0
15558;BME280;7880;50.110;9.372;2023-05-10T23:27:55;9.882280522957444;;;9.75;100.0
15558;BME280;7880;50.110;9.372;2023-05-10T23:32:59;9.973041341477074;;;9.625;100.0
15558;BME280;7880;50.110;9.372;2023-05-10T23:38:04;9.76126624494791;;;9.562;100.0
15558;BME280;7880;50.110;9.372;2023-05-10T23:43:08;9.72092818953097;;;9.437;100.0
15558;BME280;7880;50.110;9.372;2023-05-10T23:48:12;9.988168153731385;;;9.75;100.0
15558;BME280;7880;50.110;9.372;2023-05-10T23:53:19;9.801604318991304;;;9.687;100.0
15558;BME280;7880;50.110;9.372;2023-05-10T23:58:23;9.645294385828311;;;9.437;100.0
